Latest Weather Observations for Thredbo Top Station

IDN60801

Issued at 5:33 am EDT Sunday 25 October 2020 (issued every 10 minutes, with the page automatically refreshed every 10 minutes)

About weather observations | Map of weather stations | Latest weather observations for NSW | Other Formats
Station Details ID: 071032 Name: THREDBO AWS Lat: -36.49 Lon: 148.29 Height: 1957.0 m
Data from the previous 72 hours. | See also: Recent months at Thredbo Top Station
Date/Time
EDT
Temp
°C
App
Temp
°C
Dew
Point
°C
Rel
Hum
%
Delta-T
°C
Wind Press
QNH
hPa
Press
MSL
hPa
Rain since
9am
mm
Dir  Spd
km/h
Gust
km/h
Spd
kts
Gust
kts
25/05:30am -4.0 -7.9 -4.3 98 -0.1 SSE 7 11 4 6 - - 44.8
25/05:00am -2.8 -6.0 -3.1 98 0.0 E 4 6 2 3 - - 44.8
25/04:30am -2.6 -5.7 -2.9 98 0.0 ESE 4 7 2 4 - - 44.8
25/04:00am -1.9 -5.3 -2.2 98 0.0 SE 6 9 3 5 - - 44.8
25/03:30am -1.5 -4.9 -1.8 98 0.0 SSE 6 9 3 5 - - 44.8
25/03:00am -1.4 -4.8 -1.7 98 0.0 S 6 9 3 5 - - 44.8
25/02:30am -0.9 -3.8 -1.2 98 0.1 SSE 4 9 2 5 - - 44.8
25/02:00am -0.8 -3.7 -1.1 98 0.1 ESE 4 7 2 4 - - 44.8
25/01:30am -0.7 -3.6 -1.0 98 0.1 SE 4 6 2 3 - - 44.6
25/01:00am -0.5 -3.4 -0.8 98 0.1 SSE 4 7 2 4 - - 44.6
25/12:30am -0.4 -3.2 -0.7 98 0.1 E 4 6 2 3 - - 44.6
25/12:00am -0.5 -3.0 -0.8 98 0.1 ENE 2 4 1 2 - - 44.6
 
Date/Time
EDT
Temp
°C
App
Temp
°C
Dew
Point
°C
Rel
Hum
%
Delta-T
°C
Wind Press
QNH
hPa
Press
MSL
hPa
Rain since
9am
mm
Dir  Spd
km/h
Gust
km/h
Spd
kts
Gust
kts
24/11:30pm -0.4 -3.6 -0.7 98 0.1 SE 6 9 3 5 - - 44.6
24/11:00pm 0.4 -2.3 0.1 98 0.1 E 4 7 2 4 - - 44.6
24/10:30pm 0.2 -2.9 -0.1 98 0.1 SSW 6 9 3 5 - - 44.6
24/10:00pm 1.3 -1.3 1.0 98 0.1 ESE 4 4 2 2 - - 44.6
24/09:30pm 1.8 -0.7 1.5 98 0.1 SSW 4 7 2 4 - - 44.6
24/09:00pm 1.5 -2.0 1.2 98 0.1 S 9 17 5 9 - - 44.6
24/08:30pm 1.6 -2.7 1.3 98 0.1 S 13 20 7 11 - - 44.2
24/08:00pm 1.2 -1.8 0.9 98 0.1 S 6 7 3 4 - - 43.4
24/07:30pm 1.4 -2.5 1.1 98 0.1 SSE 11 17 6 9 - - 42.2
24/07:00pm 2.1 -2.1 1.8 98 0.1 S 13 19 7 10 - - 42.2
24/06:30pm 2.9 -1.1 2.6 98 0.1 SSW 13 19 7 10 - - 41.4
24/06:00pm 3.2 -0.4 2.9 98 0.1 SSE 11 19 6 10 - - 36.0
24/05:30pm 6.4 3.4 6.1 98 0.2 NE 11 20 6 11 - - 34.4
24/05:00pm 8.2 3.9 7.9 98 0.2 NNW 20 30 11 16 - - 34.4
24/04:30pm 8.0 3.3 7.7 98 0.2 NNW 22 28 12 15 - - 34.4
24/04:00pm 7.6 2.4 7.3 98 0.2 NNW 24 33 13 18 - - 34.4
24/03:30pm 7.8 2.7 7.5 98 0.2 NW 24 35 13 19 - - 34.4
24/03:00pm 7.6 0.3 7.3 98 0.2 NW 35 56 19 30 - - 34.4
24/02:39pm 8.3 -0.5 8.0 98 0.2 NW 44 63 24 34 - - 34.4
24/02:30pm 8.8 1.4 8.5 98 0.2 WNW 37 59 20 32 - - 34.4
24/02:03pm 7.4 1.4 7.1 98 0.2 WNW 28 48 15 26 - - 34.2
24/02:00pm 7.5 2.7 7.2 98 0.2 WNW 22 35 12 19 - - 34.2
24/01:30pm 7.4 1.8 7.1 98 0.2 WNW 26 43 14 23 - - 31.0
24/01:16pm 7.4 1.4 7.1 98 0.2 NW 28 46 15 25 - - 29.8
24/01:00pm 7.3 0.5 7.0 98 0.2 WNW 32 44 17 24 - - 28.4
24/12:40pm 7.2 0.4 6.9 98 0.2 WNW 32 52 17 28 - - 25.6
24/12:30pm 7.1 1.4 6.8 98 0.2 NW 26 41 14 22 - - 24.4
24/12:00pm 7.2 2.3 6.9 98 0.2 WNW 22 32 12 17 - - 19.8
24/11:30am 7.4 2.2 7.1 98 0.2 WNW 24 35 13 19 - - 15.4
24/11:00am 7.3 0.5 7.0 98 0.2 W 32 52 17 28 - - 12.2
24/10:30am 7.8 0.6 7.5 98 0.2 WNW 35 54 19 29 - - 8.6
24/10:07am 8.1 1.5 7.8 98 0.2 NW 32 50 17 27 - - 6.8
24/10:00am 8.0 1.2 7.7 98 0.2 NW 33 50 18 27 - - 6.0
24/09:31am 8.1 2.3 7.8 98 0.2 NW 28 46 15 25 - - 3.0
24/09:30am 8.1 1.9 7.8 98 0.2 NW 30 46 16 25 - - 2.6
24/09:00am 7.7 -2.4 7.4 98 0.2 WNW 50 72 27 39 - - 58.6
24/08:30am 7.5 -1.5 7.2 98 0.2 NW 44 65 24 35 - - 54.8
24/08:00am 8.4 -1.5 8.3 99 0.1 NW 50 80 27 43 - - 44.2
24/07:30am 8.3 -2.4 8.2 99 0.1 NW 54 78 29 42 - - 41.2
24/07:00am 8.2 -2.9 8.1 99 0.1 NW 56 83 30 45 - - 40.6
24/06:30am 8.0 -2.0 7.7 98 0.2 NW 50 89 27 48 - - 40.0
24/06:12am 8.4 -3.2 8.1 98 0.2 NW 59 93 32 50 - - 37.4
24/06:11am 8.4 -3.2 8.3 99 0.1 NW 59 93 32 50 - - 37.0
24/06:00am 8.4 -5.7 8.3 99 0.1 NW 72 100 39 54 - - 33.4
24/05:38am 8.0 -5.8 7.9 99 0.1 NNW 70 89 38 48 - - 31.8
24/05:30am 7.9 -6.0 7.6 98 0.2 NNW 70 87 38 47 - - 31.8
24/05:00am 7.8 -6.1 7.5 98 0.2 NW 70 96 38 52 - - 31.6
24/04:30am 7.5 -8.3 7.2 98 0.2 NNW 80 104 43 56 - - 31.4
24/04:00am 7.5 -6.8 7.2 98 0.2 NW 72 93 39 50 - - 31.2
24/03:30am 7.3 -8.6 7.0 98 0.2 NNW 80 100 43 54 - - 30.8
24/03:00am 7.4 -6.6 7.1 98 0.2 NNW 70 96 38 52 - - 30.4
24/02:30am 7.8 -4.7 7.5 98 0.2 NNW 63 89 34 48 - - 30.0
24/02:00am 8.0 -3.7 7.7 98 0.2 NNW 59 80 32 43 - - 28.8
24/01:30am 8.1 -4.4 7.8 98 0.2 NNW 63 95 34 51 - - 27.6
24/01:00am 8.4 -3.6 8.1 98 0.2 NNW 61 83 33 45 - - 27.4
24/12:34am 8.3 -2.4 8.0 98 0.2 NNW 54 72 29 39 - - 27.2
24/12:30am 8.4 -2.7 8.1 98 0.2 NNW 56 72 30 39 - - 27.2
24/12:01am 8.4 -1.9 8.1 98 0.2 NNW 52 72 28 39 - - 27.2
24/12:00am 8.5 -1.4 8.2 98 0.2 NNW 50 67 27 36 - - 27.2
 
Date/Time
EDT
Temp
°C
App
Temp
°C
Dew
Point
°C
Rel
Hum
%
Delta-T
°C
Wind Press
QNH
hPa
Press
MSL
hPa
Rain since
9am
mm
Dir  Spd
km/h
Gust
km/h
Spd
kts
Gust
kts
23/11:31pm 8.7 -1.2 8.4 98 0.2 N 50 69 27 37 - - 27.2
23/11:30pm 8.7 -0.8 8.4 98 0.2 N 48 65 26 35 - - 27.2
23/11:04pm 8.7 -0.4 8.4 98 0.2 N 46 65 25 35 - - 26.8
23/11:00pm 8.9 0.4 8.6 98 0.2 N 43 65 23 35 - - 26.8
23/10:48pm 8.8 2.4 8.5 98 0.2 N 32 54 17 29 - - 26.8
23/10:30pm 8.9 2.5 8.6 98 0.2 N 32 46 17 25 - - 26.2
23/10:14pm 9.3 3.4 9.0 98 0.2 N 30 48 16 26 - - 26.2
23/10:00pm 9.1 4.3 8.8 98 0.2 N 24 39 13 21 - - 26.2
23/09:30pm 7.9 3.5 7.6 98 0.2 NNE 20 30 11 16 - - 26.2
23/09:00pm 7.7 2.9 7.4 98 0.2 NNE 22 30 12 16 - - 26.2
23/08:30pm 7.4 3.1 7.1 98 0.2 N 19 26 10 14 - - 26.2
23/08:00pm 7.6 1.3 7.3 98 0.2 NNW 30 39 16 21 - - 25.8
23/07:30pm 7.2 1.2 6.9 98 0.2 NNW 28 37 15 20 - - 22.4
23/07:00pm 7.5 -0.9 7.2 98 0.2 NNW 41 52 22 28 - - 19.8
23/06:30pm 8.1 1.3 7.8 98 0.2 N 33 43 18 23 - - 17.8
23/06:00pm 7.9 0.7 7.6 98 0.2 NNW 35 48 19 26 1014.3 1012.3 17.6
23/05:48pm 8.2 2.4 7.9 98 0.2 N 28 46 15 25 1014.3 1012.3 17.6
23/05:30pm 7.7 1.0 7.4 98 0.2 NNW 32 39 17 21 1014.7 1012.7 17.6
23/05:07pm 7.3 -0.4 7.0 98 0.2 NNW 37 59 20 32 - - 14.2
23/05:00pm 9.0 2.1 8.7 98 0.2 NNW 35 48 19 26 - - 12.0
23/04:30pm 9.5 1.2 9.2 98 0.2 NNW 43 52 23 28 - - 10.6
23/04:00pm 9.8 2.3 9.5 98 0.2 NNW 39 54 21 29 - - 10.6
23/03:32pm 9.4 1.0 9.1 98 0.2 NNW 43 61 23 33 - - 10.6
23/03:30pm 9.4 1.0 9.1 98 0.2 NNW 43 57 23 31 - - 10.6
23/03:06pm 9.6 0.7 9.3 98 0.2 NNW 46 65 25 35 - - 10.6
23/03:00pm 9.8 1.0 9.5 98 0.2 NNW 46 63 25 34 - - 10.6
23/02:46pm 9.5 1.2 9.2 98 0.2 NNW 43 70 23 38 1014.4 1012.4 10.6
23/02:30pm 9.2 0.8 8.9 98 0.2 NNW 43 59 23 32 1014.4 1012.4 10.6
23/02:00pm 8.5 -1.0 8.2 98 0.2 NNW 48 67 26 36 1014.8 1012.8 10.6
23/01:30pm 8.7 -1.2 8.4 98 0.2 NNW 50 69 27 37 1014.9 1012.9 10.4
23/01:08pm 8.7 -1.5 8.4 98 0.2 NNW 52 70 28 38 1015.0 1013.0 10.2
23/01:00pm 9.0 -1.5 8.7 98 0.2 NNW 54 70 29 38 1014.5 1012.5 10.2
23/12:32pm 9.1 -1.4 8.8 98 0.2 NNW 54 72 29 39 1015.3 1013.3 10.0
23/12:30pm 9.1 -1.8 8.8 98 0.2 NNW 56 72 30 39 1015.5 1013.5 10.0
23/12:00pm 8.9 -2.1 8.6 98 0.2 NNW 56 74 30 40 1015.1 1013.2 10.0
23/11:30am 6.8 -4.8 6.5 98 0.2 NNW 57 87 31 47 1015.0 1013.0 9.6
23/11:20am 8.4 -1.2 8.1 98 0.2 NW 48 72 26 39 1015.9 1013.9 8.6
23/11:15am 8.8 1.4 8.5 98 0.2 NW 37 72 20 39 1015.7 1013.8 8.4
23/11:07am 7.4 -0.7 7.1 98 0.2 NW 39 61 21 33 1017.2 1015.3 8.2
23/11:04am 7.4 -0.7 7.1 98 0.2 WNW 39 61 21 33 1016.8 1014.9 7.6
23/11:00am 7.4 -0.7 7.1 98 0.2 WNW 39 67 21 36 1017.2 1015.3 5.4
23/10:59am 7.5 -0.6 7.2 98 0.2 NW 39 67 21 36 1017.3 1015.4 5.0
23/10:55am 8.2 -0.6 7.9 98 0.2 NW 44 69 24 37 1017.7 1015.8 3.6
23/10:41am 8.8 -1.0 8.5 98 0.2 NNW 50 69 27 37 1015.5 1013.5 0.6
23/10:30am 9.0 -1.2 8.7 98 0.2 NNW 52 69 28 37 1015.9 1013.9 0.6
23/10:05am 8.6 -0.9 8.3 98 0.2 NW 48 67 26 36 1016.2 1014.3 0.6
23/10:00am 8.8 -1.0 8.5 98 0.2 NNW 50 67 27 36 1016.1 1014.2 0.6
23/09:33am 8.3 -0.3 8.0 98 0.2 NW 43 61 23 33 1016.4 1014.4 0.6
23/09:30am 8.2 -0.6 7.9 98 0.2 NNW 44 59 24 32 1016.5 1014.5 0.6
23/09:04am 8.5 -0.3 8.2 98 0.2 NNW 44 65 24 35 1015.9 1013.9 0.2
23/09:00am 8.1 -0.2 7.8 98 0.2 NNW 41 54 22 29 1016.5 1014.5 1.0
23/08:30am 7.9 -1.0 7.6 98 0.2 NNW 44 59 24 32 1017.0 1015.1 0.0
23/08:02am 8.0 -0.3 7.7 98 0.2 NW 41 59 22 32 1016.4 1014.4 0.0
23/08:00am 8.0 -0.3 7.7 98 0.2 NW 41 52 22 28 1016.6 1014.7 0.0
23/07:30am 8.4 -0.4 8.0 97 0.2 NW 44 56 24 30 1016.6 1014.7 0.0
23/07:00am 8.4 0.2 8.0 97 0.2 NNW 41 52 22 28 1017.1 1015.2 0.0
23/06:30am 7.9 0.9 5.9 87 1.0 NNW 32 41 17 22 1017.0 1015.1 0.0
23/06:00am 7.1 -0.4 -1.1 56 3.5 NNW 28 32 15 17 1016.8 1014.9 0.0
23/05:30am 7.6 0.2 -0.6 56 3.6 NNW 28 33 15 18 1017.1 1015.2 0.0
23/05:00am 8.1 0.9 0.6 59 3.4 NW 28 32 15 17 1017.0 1015.1 0.0
23/04:30am 7.9 0.3 0.6 60 3.3 NW 30 35 16 19 1016.5 1014.5 0.0
23/04:00am 7.8 0.2 0.5 60 3.3 NW 30 39 16 21 1016.6 1014.7 0.0
23/03:30am 7.7 -1.0 -0.5 56 3.6 NW 35 41 19 22 1016.5 1014.5 0.0
23/03:00am 7.7 -1.1 -1.0 54 3.8 NW 35 43 19 23 1016.2 1014.3 0.0
23/02:30am 7.7 -0.8 -1.8 51 4.1 NW 33 41 18 22 1016.4 1014.4 0.0
23/02:00am 7.9 -0.9 -1.3 52 4.0 NW 35 43 19 23 1016.5 1014.5 0.0
23/01:30am 8.3 -2.0 -1.0 52 4.1 NW 43 50 23 27 1016.7 1014.8 0.0
23/01:00am 7.7 -0.7 1.3 64 2.9 NW 35 44 19 24 1017.6 1015.7 0.0
23/12:30am 6.8 0.9 5.6 92 0.6 NW 26 35 14 19 1018.4 1016.6 0.0
23/12:00am 6.6 1.0 5.6 93 0.5 NW 24 32 13 17 1019.0 1017.2 0.0
 
Date/Time
EDT
Temp
°C
App
Temp
°C
Dew
Point
°C
Rel
Hum
%
Delta-T
°C
Wind Press
QNH
hPa
Press
MSL
hPa
Rain since
9am
mm
Dir  Spd
km/h
Gust
km/h
Spd
kts
Gust
kts
22/11:30pm 6.7 1.8 5.0 89 0.8 NW 20 28 11 15 1019.4 1017.6 0.0
22/11:00pm 7.1 1.3 4.2 82 1.4 NW 24 32 13 17 1019.3 1017.5 0.0
22/10:30pm 7.3 2.5 5.8 90 0.8 NW 20 26 11 14 1019.5 1017.7 0.0
22/10:00pm 6.5 1.6 4.2 85 1.1 NW 19 22 10 12 1019.6 1017.8 0.0
22/09:30pm 3.6 0.3 2.6 93 0.5 NNW 9 13 5 7 1019.7 1018.0 0.0
22/09:00pm 4.1 0.8 2.5 89 0.7 NW 9 13 5 7 1019.3 1017.5 0.0
22/08:30pm 6.9 4.1 2.2 72 2.2 SW 6 11 3 6 1019.4 1017.6 0.0
22/08:00pm 7.7 1.9 2.4 69 2.5 NW 22 28 12 15 1018.9 1017.1 0.0
22/07:30pm 7.9 1.1 0.9 61 3.2 NW 26 32 14 17 1018.8 1017.0 0.0
22/07:00pm 8.6 1.7 -2.3 46 4.6 NNW 24 28 13 15 1018.8 1017.0 0.0
22/06:30pm 9.8 3.2 -3.5 39 5.6 NNW 22 26 12 14 1018.8 1017.0 0.0
22/06:00pm 10.4 5.3 -2.3 41 5.5 NNW 15 20 8 11 1018.8 1017.0 0.0
22/05:30pm 11.5 6.3 -2.7 37 6.2 NNW 15 22 8 12 1018.7 1016.8 0.0
22/05:00pm 11.8 6.2 -3.1 35 6.4 NW 17 24 9 13 1018.5 1016.7 0.0
22/04:30pm 12.7 7.9 -2.7 34 6.8 NW 13 26 7 14 1018.5 1016.7 0.0
22/04:00pm 12.2 6.0 -4.8 30 7.1 NW 19 26 10 14 1018.3 1016.4 0.0
22/03:30pm 12.4 6.4 -7.0 25 7.7 NW 17 26 9 14 1018.3 1016.4 0.0
22/03:00pm 12.0 5.1 -6.4 27 7.4 N 22 32 12 17 1018.5 1016.7 0.0
22/02:30pm 12.3 5.4 -6.1 27 7.5 NNW 22 30 12 16 1018.7 1016.8 0.0
22/02:00pm 11.7 4.6 -4.4 32 6.7 NNW 24 33 13 18 1018.7 1016.8 0.0
22/01:30pm 12.0 5.3 -3.8 33 6.7 NW 22 32 12 17 1018.8 1017.0 0.0
22/01:00pm 12.1 5.3 -4.9 30 7.1 NNW 22 28 12 15 1018.7 1016.8 0.0
22/12:30pm 12.5 6.1 -7.0 25 7.8 NNW 19 26 10 14 1019.0 1017.2 0.0
22/12:00pm 11.2 4.6 -8.6 24 7.5 NNW 19 26 10 14 1019.1 1017.3 0.0
22/11:30am 11.5 5.7 -8.3 24 7.6 NW 15 22 8 12 1019.3 1017.5 0.0
22/11:00am 11.5 5.2 -10.0 21 7.9 NNW 17 26 9 14 1019.4 1017.6 0.0
22/10:30am 11.3 5.5 -8.5 24 7.5 WNW 15 24 8 13 1019.5 1017.7 0.0
22/10:00am 10.7 5.3 -9.0 24 7.3 NW 13 20 7 11 1019.4 1017.6 0.0
22/09:30am 10.0 3.2 -11.3 21 7.5 NW 19 26 10 14 1019.3 1017.5 0.0
22/09:00am 10.0 3.7 -10.1 23 7.2 WNW 17 22 9 12 1019.1 1017.3 0.0
22/08:30am 9.4 2.4 -7.7 29 6.5 NW 22 30 12 16 1019.0 1017.2 0.0
22/08:00am 8.1 1.9 -8.8 29 6.1 N 17 24 9 13 1018.5 1016.7 0.0
22/07:30am 6.9 1.5 -8.2 33 5.5 N 13 17 7 9 1018.5 1016.7 0.0
22/07:00am 5.6 -0.1 -7.2 39 4.7 N 15 20 8 11 1018.3 1016.4 0.0
22/06:30am 2.1 -4.3 -5.1 59 2.8 NNW 20 24 11 13 1018.0 1016.2 0.0
22/06:00am 2.0 -5.3 -3.1 69 2.0 NW 26 32 14 17 1017.7 1015.8 0.0

Other formats

Comma delimited format used in spreadsheet applications
http://www.bom.gov.au/fwo/IDN60801/IDN60801.95909.axf

JavaScript Object Notation format (JSON) in row-major order
http://www.bom.gov.au/fwo/IDN60801/IDN60801.95909.json

Data quality

Most of these data are generated automatically and are frequently updated. Quality checks on data are not normally performed. It is possible for incorrect values to appear. Refer to information at About Latest Weather Observations and please check the disclaimer before using these data.